createdAt,value
2023-01-03T00:03:35.243Z,12.16
2023-01-03T00:09:19.502Z,12.12
2023-01-03T00:15:03.274Z,12.1
2023-01-03T00:20:45.999Z,12.08
2023-01-03T00:26:28.929Z,12.04
2023-01-03T00:32:12.034Z,12.04
2023-01-03T00:37:54.819Z,11.99
2023-01-03T00:43:38.171Z,11.96
2023-01-03T00:49:21.141Z,11.94
2023-01-03T00:55:04.381Z,11.9
2023-01-03T01:00:47.165Z,11.9
2023-01-03T01:06:31.053Z,11.92
2023-01-03T01:12:14.047Z,11.97
2023-01-03T01:17:57.392Z,11.91
2023-01-03T01:23:41.535Z,11.94
2023-01-03T01:29:24.629Z,11.89
2023-01-03T01:35:08.159Z,11.89
2023-01-03T01:40:50.940Z,11.87
2023-01-03T01:46:34.129Z,11.84
2023-01-03T01:52:18.323Z,11.81
2023-01-03T01:58:01.557Z,11.83
2023-01-03T02:03:46.609Z,11.82
2023-01-03T02:09:29.692Z,11.82
2023-01-03T02:15:19.116Z,11.88
2023-01-03T02:21:19.708Z,11.82
2023-01-03T02:27:09.830Z,11.82
2023-01-03T02:32:56.991Z,11.79
2023-01-03T02:38:46.332Z,11.87
2023-01-03T02:44:32.077Z,11.83
2023-01-03T02:50:15.245Z,11.74
2023-01-03T02:56:00.463Z,11.71
2023-01-03T03:01:44.541Z,11.68
2023-01-03T03:07:31.247Z,11.68
2023-01-03T03:13:19.078Z,11.67
2023-01-03T03:19:02.908Z,11.64
2023-01-03T03:24:45.883Z,11.61
2023-01-03T03:30:31.243Z,11.61
2023-01-03T03:36:17.204Z,11.67
2023-01-03T03:42:04.026Z,11.74
2023-01-03T03:47:57.783Z,11.69
2023-01-03T03:53:42.198Z,11.68
2023-01-03T03:59:27.205Z,11.64
2023-01-03T04:05:10.914Z,11.66
2023-01-03T04:10:54.690Z,11.68
2023-01-03T04:16:37.730Z,11.71
2023-01-03T04:22:20.916Z,11.74
2023-01-03T04:28:03.896Z,11.85
2023-01-03T04:33:46.670Z,11.87
2023-01-03T04:39:29.530Z,11.87
2023-01-03T04:45:12.847Z,11.87
2023-01-03T04:50:56.529Z,11.96
2023-01-03T04:56:39.445Z,11.92
2023-01-03T05:02:22.296Z,11.94
2023-01-03T05:08:08.104Z,11.97
2023-01-03T05:13:51.160Z,11.95
2023-01-03T05:19:34.228Z,11.95
2023-01-03T05:25:27.539Z,11.98
2023-01-03T05:31:10.658Z,11.99
2023-01-03T05:36:53.634Z,12.03
2023-01-03T05:42:36.471Z,12.02
2023-01-03T05:48:20.087Z,12.01
2023-01-03T05:54:03.121Z,12.03
2023-01-03T05:59:47.061Z,12.03
2023-01-03T06:05:29.862Z,12.07
2023-01-03T06:11:14.693Z,12.1
2023-01-03T06:16:57.481Z,12.1
2023-01-03T06:22:40.903Z,12.11
2023-01-03T06:28:23.618Z,12.11
2023-01-03T06:34:07.726Z,12.1
2023-01-03T06:39:51.173Z,12.12
2023-01-03T06:45:34.048Z,12.14
2023-01-03T06:51:19.086Z,12.13
2023-01-03T06:57:02.061Z,12.17
2023-01-03T07:02:48.793Z,12.17
2023-01-03T07:08:32.221Z,12.24
2023-01-03T07:14:15.403Z,12.28
2023-01-03T07:19:58.202Z,12.28
2023-01-03T07:25:41.094Z,12.29
2023-01-03T07:31:24.384Z,12.31
2023-01-03T07:37:07.425Z,12.33
2023-01-03T07:42:50.316Z,12.34
2023-01-03T07:48:33.200Z,12.35
2023-01-03T07:54:16.058Z,12.37
2023-01-03T07:59:58.821Z,12.41
2023-01-03T08:05:41.588Z,12.45
2023-01-03T08:11:24.757Z,12.47
2023-01-03T08:17:07.503Z,12.51
2023-01-03T08:22:50.154Z,12.54
2023-01-03T08:28:33.249Z,12.57
2023-01-03T08:34:21.091Z,12.6
2023-01-03T08:40:14.211Z,12.67
2023-01-03T08:46:03.775Z,12.71
2023-01-03T08:51:46.655Z,12.73
2023-01-03T08:57:29.347Z,12.76
2023-01-03T09:03:12.415Z,12.76
2023-01-03T09:08:56.696Z,12.8
2023-01-03T09:14:39.497Z,12.87
2023-01-03T09:20:22.518Z,12.87
2023-01-03T09:26:06.024Z,12.93
2023-01-03T09:31:51.049Z,12.99
2023-01-03T09:37:34.425Z,12.99
2023-01-03T09:43:23.247Z,13.01
2023-01-03T09:49:07.750Z,13.05
2023-01-03T09:54:50.511Z,13.09
2023-01-03T10:00:37.436Z,13.06
2023-01-03T10:06:30.666Z,13.16
2023-01-03T10:12:18.493Z,13.35
2023-01-03T10:18:06.345Z,13.43
2023-01-03T10:23:49.660Z,13.55
2023-01-03T10:29:32.759Z,13.74
2023-01-03T10:35:23.168Z,13.86
2023-01-03T10:41:11.047Z,13.94
2023-01-03T10:46:55.029Z,14.03
2023-01-03T10:52:39.021Z,14.07
2023-01-03T10:58:27.049Z,14.1
2023-01-03T11:04:17.738Z,14.24
2023-01-03T11:10:00.626Z,14.4
2023-01-03T11:15:43.578Z,14.58
2023-01-03T11:21:29.695Z,14.68
2023-01-03T11:27:16.597Z,14.7
2023-01-03T11:33:13.129Z,14.68
2023-01-03T11:39:02.432Z,14.67
2023-01-03T11:44:59.017Z,14.79
2023-01-03T11:50:48.469Z,14.89
2023-01-03T11:56:34.616Z,15.07
2023-01-03T12:02:38.322Z,15.07
2023-01-03T12:08:48.017Z,15.17
2023-01-03T12:14:34.543Z,15.48
2023-01-03T12:20:21.232Z,15.42
2023-01-03T12:26:06.480Z,15.44
2023-01-03T12:31:53.646Z,15.47
2023-01-03T12:37:38.654Z,15.49
2023-01-03T12:43:25.203Z,15.55
2023-01-03T12:49:12.187Z,15.64
2023-01-03T12:54:58.131Z,15.64
2023-01-03T13:00:58.836Z,15.68
2023-01-03T13:06:46.467Z,15.73
2023-01-03T13:12:30.825Z,15.67
2023-01-03T13:18:29.394Z,15.65
2023-01-03T13:24:12.284Z,15.65
2023-01-03T13:29:58.575Z,15.69
2023-01-03T13:35:46.192Z,15.76
2023-01-03T13:41:35.138Z,15.7
2023-01-03T13:47:30.999Z,15.69
2023-01-03T13:53:24.765Z,15.71
2023-01-03T13:59:17.165Z,15.69
2023-01-03T14:05:18.749Z,15.7
2023-01-03T14:11:21.063Z,15.61
2023-01-03T14:17:04.552Z,15.58
2023-01-03T14:22:49.734Z,15.52
2023-01-03T14:28:33.830Z,15.4
2023-01-03T14:34:21.769Z,15.36
2023-01-03T14:40:06.701Z,15.45
2023-01-03T14:45:53.723Z,15.66
2023-01-03T14:51:37.142Z,15.61
2023-01-03T14:57:25.003Z,15.5
2023-01-03T15:03:11.737Z,15.39
2023-01-03T15:08:56.660Z,15.3
2023-01-03T15:14:39.630Z,15.18
2023-01-03T15:20:28.518Z,15.08
2023-01-03T15:26:19.232Z,14.99
2023-01-03T15:32:02.281Z,14.91
2023-01-03T15:37:45.342Z,14.82
2023-01-03T15:43:30.261Z,14.72
2023-01-03T15:49:16.138Z,14.61
2023-01-03T15:54:59.055Z,14.55
2023-01-03T16:00:42.132Z,14.51
2023-01-03T16:06:25.210Z,14.42
2023-01-03T16:12:13.045Z,14.33
2023-01-03T16:17:56.850Z,14.26
2023-01-03T16:23:40.887Z,14.2
2023-01-03T16:29:23.682Z,14.15
2023-01-03T16:35:11.819Z,14.24
2023-01-03T16:40:55.000Z,14.14
2023-01-03T16:46:38.680Z,13.98
2023-01-03T16:52:24.712Z,13.9
2023-01-03T16:58:10.115Z,13.83
2023-01-03T17:03:53.075Z,13.83
2023-01-03T17:09:36.155Z,13.78
2023-01-03T17:15:19.102Z,13.72
2023-01-03T17:21:06.983Z,13.69
2023-01-03T17:26:49.917Z,13.75
2023-01-03T17:32:33.027Z,13.73
2023-01-03T17:38:26.003Z,13.72
2023-01-03T17:44:10.085Z,13.68
2023-01-03T17:49:52.887Z,13.64
2023-01-03T17:55:36.059Z,13.61
2023-01-03T18:01:19.165Z,13.61
2023-01-03T18:07:02.562Z,13.61
2023-01-03T18:12:45.582Z,13.59
2023-01-03T18:18:28.649Z,13.54
2023-01-03T18:24:16.370Z,13.53
2023-01-03T18:29:59.530Z,13.51
2023-01-03T18:35:42.793Z,13.53
2023-01-03T18:41:27.039Z,13.49
2023-01-03T18:47:10.807Z,13.48
2023-01-03T18:52:54.800Z,13.46
2023-01-03T18:58:38.740Z,13.43
2023-01-03T19:04:21.690Z,13.44
2023-01-03T19:10:06.017Z,13.4
2023-01-03T19:15:49.099Z,13.45
2023-01-03T19:21:33.934Z,13.45
2023-01-03T19:27:19.841Z,13.45
2023-01-03T19:33:03.522Z,13.41
2023-01-03T19:38:46.292Z,13.43
2023-01-03T19:44:29.061Z,13.39
2023-01-03T19:50:16.779Z,13.38
2023-01-03T19:55:59.715Z,13.36
2023-01-03T20:02:14.004Z,13.33
2023-01-03T20:07:49.248Z,13.36
2023-01-03T20:13:33.025Z,13.32
2023-01-03T20:19:19.523Z,13.29
2023-01-03T20:25:12.930Z,13.24
2023-01-03T20:30:56.107Z,13.24
2023-01-03T20:36:40.831Z,13.22
2023-01-03T20:42:23.549Z,13.21
2023-01-03T20:48:12.772Z,13.19
2023-01-03T20:54:06.970Z,13.26
2023-01-03T20:59:50.085Z,13.24
2023-01-03T21:05:32.948Z,13.23
2023-01-03T21:11:15.719Z,13.2
2023-01-03T21:16:58.636Z,13.2
2023-01-03T21:22:41.908Z,13.22
2023-01-03T21:28:24.655Z,13.22
2023-01-03T21:34:12.634Z,13.26
2023-01-03T21:39:55.799Z,13.28
2023-01-03T21:45:39.337Z,13.29
2023-01-03T21:51:33.371Z,13.35
2023-01-03T21:57:23.267Z,13.35
2023-01-03T22:03:06.617Z,13.4
2023-01-03T22:08:50.071Z,13.38
2023-01-03T22:14:33.547Z,13.35
2023-01-03T22:20:17.299Z,13.35
2023-01-03T22:26:04.961Z,13.35
2023-01-03T22:31:48.700Z,13.39
2023-01-03T22:37:32.149Z,13.42
2023-01-03T22:43:14.872Z,13.43
2023-01-03T22:48:57.534Z,13.39
2023-01-03T22:54:40.467Z,13.39
2023-01-03T23:00:24.157Z,13.38
2023-01-03T23:06:09.433Z,13.39
2023-01-03T23:11:52.346Z,13.4
2023-01-03T23:17:36.676Z,13.39
2023-01-03T23:23:19.969Z,13.36
2023-01-03T23:29:03.261Z,13.34
2023-01-03T23:34:46.848Z,13.36
2023-01-03T23:40:30.161Z,13.35
2023-01-03T23:46:15.333Z,13.36
2023-01-03T23:51:58.855Z,13.37
2023-01-03T23:57:43.121Z,13.36
